createdAt,value
2023-05-19T00:01:19.331Z,5.30
2023-05-19T00:03:46.837Z,5.40
2023-05-19T00:06:14.546Z,6.30
2023-05-19T00:08:42.318Z,6.00
2023-05-19T00:11:09.925Z,5.50
2023-05-19T00:13:37.433Z,6.00
2023-05-19T00:16:06.185Z,5.40
2023-05-19T00:18:34.676Z,4.10
2023-05-19T00:21:02.283Z,3.70
2023-05-19T00:23:29.832Z,3.30
2023-05-19T00:25:57.418Z,3.30
2023-05-19T00:28:24.944Z,2.80
2023-05-19T00:30:52.535Z,2.80
2023-05-19T00:33:20.080Z,3.20
2023-05-19T00:35:47.589Z,3.00
2023-05-19T00:38:15.137Z,2.80
2023-05-19T00:40:43.008Z,2.90
2023-05-19T00:43:10.659Z,3.00
2023-05-19T00:45:38.198Z,2.50
2023-05-19T00:48:05.712Z,3.00
2023-05-19T00:50:33.556Z,2.70
2023-05-19T00:53:01.589Z,3.20
2023-05-19T00:55:29.178Z,3.10
2023-05-19T00:57:56.776Z,3.10
2023-05-19T01:00:24.312Z,3.40
2023-05-19T01:02:51.931Z,2.90
2023-05-19T01:05:19.494Z,3.40
2023-05-19T01:07:47.321Z,3.80
2023-05-19T01:10:14.826Z,3.70
2023-05-19T01:12:42.366Z,4.00
2023-05-19T01:15:10.111Z,4.00
2023-05-19T01:17:37.675Z,3.90
2023-05-19T01:20:05.281Z,3.00
2023-05-19T01:22:32.865Z,3.30
2023-05-19T01:25:00.373Z,3.10
2023-05-19T01:27:27.906Z,3.40
2023-05-19T01:29:55.508Z,3.30
2023-05-19T01:32:23.111Z,3.20
2023-05-19T01:34:50.719Z,2.90
2023-05-19T01:37:18.262Z,3.30
2023-05-19T01:39:45.913Z,3.30
2023-05-19T01:42:13.427Z,3.10
2023-05-19T01:44:40.948Z,3.30
2023-05-19T01:47:08.500Z,3.60
2023-05-19T01:49:36.082Z,3.20
2023-05-19T01:52:03.731Z,4.00
2023-05-19T01:54:31.329Z,3.80
2023-05-19T01:56:59.209Z,3.30
2023-05-19T01:59:26.781Z,2.50
2023-05-19T02:01:54.393Z,3.20
2023-05-19T02:04:22.137Z,3.00
2023-05-19T02:06:49.779Z,3.10
2023-05-19T02:09:17.338Z,3.40
2023-05-19T02:11:44.833Z,3.30
2023-05-19T02:14:12.422Z,3.20
2023-05-19T02:16:39.999Z,2.20
2023-05-19T02:19:07.561Z,2.30
2023-05-19T02:21:35.171Z,3.10
2023-05-19T02:24:02.739Z,3.20
2023-05-19T02:26:30.998Z,2.90
2023-05-19T02:28:58.523Z,3.30
2023-05-19T02:31:26.203Z,2.80
2023-05-19T02:33:53.725Z,2.60
2023-05-19T02:36:21.258Z,3.00
2023-05-19T02:38:51.346Z,2.90
2023-05-19T02:41:18.832Z,2.60
2023-05-19T02:43:46.411Z,2.80
2023-05-19T02:46:14.038Z,2.90
2023-05-19T02:48:41.622Z,2.70
2023-05-19T02:51:09.194Z,3.00
2023-05-19T02:53:36.690Z,3.10
2023-05-19T02:56:04.552Z,2.70
2023-05-19T02:58:32.200Z,2.80
2023-05-19T03:01:01.620Z,2.70
2023-05-19T03:03:29.305Z,3.00
2023-05-19T03:05:56.954Z,2.90
2023-05-19T03:08:24.515Z,2.90
2023-05-19T03:10:52.037Z,2.60
2023-05-19T03:13:19.636Z,2.60
2023-05-19T03:15:47.534Z,2.60
2023-05-19T03:18:15.406Z,2.80
2023-05-19T03:20:44.728Z,3.10
2023-05-19T03:23:12.639Z,2.90
2023-05-19T03:25:40.188Z,2.90
2023-05-19T03:28:07.737Z,2.70
2023-05-19T03:30:35.474Z,2.90
2023-05-19T03:33:03.130Z,2.80
2023-05-19T03:35:30.899Z,2.70
2023-05-19T03:37:58.449Z,3.70
2023-05-19T03:40:25.987Z,2.50
2023-05-19T03:42:54.543Z,2.10
2023-05-19T03:45:22.089Z,3.00
2023-05-19T03:47:49.637Z,2.70
2023-05-19T03:50:17.198Z,3.00
2023-05-19T03:52:46.543Z,2.70
2023-05-19T03:55:20.211Z,2.70
2023-05-19T03:57:48.783Z,2.30
2023-05-19T04:00:16.777Z,3.30
2023-05-19T04:02:44.590Z,2.50
2023-05-19T04:05:12.271Z,3.10
2023-05-19T04:07:39.766Z,3.40
2023-05-19T04:10:07.290Z,2.60
2023-05-19T04:12:34.806Z,3.90
2023-05-19T04:15:02.351Z,3.80
2023-05-19T04:17:29.950Z,3.80
2023-05-19T04:19:57.540Z,4.80
2023-05-19T04:22:24.999Z,4.80
2023-05-19T04:24:53.126Z,6.30
2023-05-19T04:27:22.225Z,3.70
2023-05-19T04:29:50.050Z,4.60
2023-05-19T04:32:18.017Z,5.20
2023-05-19T04:34:46.070Z,4.00
2023-05-19T04:37:16.620Z,3.50
2023-05-19T04:39:45.512Z,2.20
2023-05-19T04:42:19.337Z,3.40
2023-05-19T04:44:51.806Z,3.40
2023-05-19T04:47:21.560Z,3.30
2023-05-19T04:49:49.234Z,3.00
2023-05-19T04:52:22.952Z,3.10
2023-05-19T04:54:50.722Z,3.10
2023-05-19T04:57:18.811Z,3.60
2023-05-19T04:59:46.614Z,3.10
2023-05-19T05:02:14.181Z,4.00
2023-05-19T05:04:44.174Z,3.50
2023-05-19T05:07:11.767Z,2.50
2023-05-19T05:09:39.338Z,3.70
2023-05-19T05:12:08.041Z,3.40
2023-05-19T05:14:35.756Z,3.30
2023-05-19T05:17:03.364Z,3.60
2023-05-19T05:19:31.007Z,3.30
2023-05-19T05:21:58.792Z,3.30
2023-05-19T05:24:26.366Z,3.30
2023-05-19T05:26:53.894Z,2.80
2023-05-19T05:29:21.663Z,2.90
2023-05-19T05:31:49.174Z,2.10
2023-05-19T05:34:16.734Z,2.30
2023-05-19T05:36:44.468Z,2.80
2023-05-19T05:39:12.135Z,2.60
2023-05-19T05:41:39.732Z,2.00
2023-05-19T05:44:07.298Z,1.30
2023-05-19T05:46:34.985Z,2.60
2023-05-19T05:49:02.713Z,2.90
2023-05-19T05:51:32.937Z,2.40
2023-05-19T05:54:00.641Z,2.40
2023-05-19T05:56:28.659Z,2.60
2023-05-19T05:58:56.869Z,2.20
2023-05-19T06:01:24.515Z,2.70
2023-05-19T06:03:52.087Z,2.30
2023-05-19T06:06:19.664Z,2.30
2023-05-19T06:08:47.145Z,2.70
2023-05-19T06:11:14.656Z,1.90
2023-05-19T06:13:42.294Z,2.60
2023-05-19T06:16:09.988Z,2.30
2023-05-19T06:18:37.729Z,1.90
2023-05-19T06:21:05.308Z,2.60
2023-05-19T06:23:32.904Z,2.80
2023-05-19T06:26:00.415Z,3.90
2023-05-19T06:28:27.933Z,2.90
2023-05-19T06:30:55.521Z,3.60
2023-05-19T06:33:23.086Z,3.40
2023-05-19T06:35:51.102Z,3.00
2023-05-19T06:38:18.619Z,3.50
2023-05-19T06:40:46.147Z,3.30
2023-05-19T06:43:13.691Z,3.30
2023-05-19T06:45:41.263Z,3.00
2023-05-19T06:48:08.869Z,2.60
2023-05-19T06:50:36.572Z,3.20
2023-05-19T06:53:04.206Z,3.30
2023-05-19T06:55:32.379Z,2.30
2023-05-19T06:57:59.957Z,1.90
2023-05-19T07:00:27.528Z,2.70
2023-05-19T07:02:55.382Z,2.90
2023-05-19T07:05:23.078Z,2.90
2023-05-19T07:07:50.650Z,3.50
2023-05-19T07:10:18.180Z,3.10
2023-05-19T07:12:45.791Z,2.10
2023-05-19T07:15:13.298Z,3.40
2023-05-19T07:17:40.877Z,3.40
2023-05-19T07:20:10.154Z,3.20
2023-05-19T07:22:39.819Z,3.20
2023-05-19T07:25:07.554Z,3.10
2023-05-19T07:27:35.165Z,2.20
2023-05-19T07:30:04.012Z,3.20
2023-05-19T07:32:31.607Z,2.50
2023-05-19T07:34:59.155Z,2.10
2023-05-19T07:37:26.781Z,2.60
2023-05-19T07:39:54.370Z,2.50
2023-05-19T07:42:22.117Z,2.70
2023-05-19T07:44:49.646Z,2.80
2023-05-19T07:47:17.132Z,1.50
2023-05-19T07:49:44.716Z,2.40
2023-05-19T07:52:12.197Z,2.60
2023-05-19T07:54:39.750Z,2.60
2023-05-19T07:57:07.363Z,2.70
2023-05-19T07:59:34.883Z,3.50
2023-05-19T08:02:02.490Z,2.10
2023-05-19T08:04:30.268Z,3.00
2023-05-19T08:06:57.863Z,2.20
2023-05-19T08:09:25.371Z,3.40
2023-05-19T08:11:53.116Z,2.70
2023-05-19T08:14:22.804Z,2.90
2023-05-19T08:16:50.439Z,3.20
2023-05-19T08:19:18.017Z,2.90
2023-05-19T08:21:45.645Z,2.80
2023-05-19T08:24:13.554Z,3.00
2023-05-19T08:26:41.150Z,3.30
2023-05-19T08:29:08.709Z,3.10
2023-05-19T08:31:36.467Z,2.90
2023-05-19T08:34:04.095Z,2.50
2023-05-19T08:36:31.630Z,3.00
2023-05-19T08:38:59.137Z,3.60
2023-05-19T08:41:26.696Z,3.70
2023-05-19T08:43:54.168Z,3.20
2023-05-19T08:46:21.728Z,2.60
2023-05-19T08:48:49.396Z,3.10
2023-05-19T08:51:16.894Z,3.10
2023-05-19T08:53:45.277Z,2.10
2023-05-19T08:56:13.062Z,2.60
2023-05-19T08:58:41.482Z,3.30
2023-05-19T09:01:09.262Z,3.20
2023-05-19T09:03:39.844Z,3.70
2023-05-19T09:06:08.777Z,3.70
2023-05-19T09:08:37.279Z,3.50
2023-05-19T09:11:04.878Z,3.80
2023-05-19T09:13:32.487Z,3.80
2023-05-19T09:16:00.020Z,3.40
2023-05-19T09:18:27.711Z,3.70
2023-05-19T09:20:55.206Z,4.00
2023-05-19T09:23:24.928Z,3.10
2023-05-19T09:25:52.491Z,3.00
2023-05-19T09:28:20.039Z,3.00
2023-05-19T09:30:47.589Z,3.20
2023-05-19T09:33:16.537Z,3.20
2023-05-19T09:35:44.086Z,2.50
2023-05-19T09:38:12.184Z,3.00
2023-05-19T09:40:39.698Z,3.30
2023-05-19T09:43:07.267Z,4.10
2023-05-19T09:45:35.042Z,3.20
2023-05-19T09:48:03.144Z,3.20
2023-05-19T09:50:30.944Z,3.30
2023-05-19T09:52:58.634Z,3.10
2023-05-19T09:55:26.354Z,2.60
2023-05-19T09:57:54.024Z,3.20
2023-05-19T10:00:21.574Z,3.10
2023-05-19T10:02:50.537Z,4.10
2023-05-19T10:05:20.216Z,3.00
2023-05-19T10:07:48.509Z,3.60
2023-05-19T10:10:16.273Z,3.20
2023-05-19T10:12:43.857Z,3.00
2023-05-19T10:15:11.797Z,3.10
2023-05-19T10:17:40.012Z,3.20
2023-05-19T10:20:08.904Z,2.80
2023-05-19T10:22:36.401Z,3.70
2023-05-19T10:25:04.111Z,3.10
2023-05-19T10:27:31.614Z,3.00
2023-05-19T10:29:59.131Z,3.30
2023-05-19T10:32:26.715Z,3.40
2023-05-19T10:34:54.407Z,3.70
2023-05-19T10:37:22.110Z,3.10
2023-05-19T10:39:49.724Z,2.40
2023-05-19T10:42:17.439Z,3.80
2023-05-19T10:44:44.971Z,3.80
2023-05-19T10:47:12.836Z,3.20
2023-05-19T10:49:40.561Z,3.40
2023-05-19T10:52:08.098Z,4.60
2023-05-19T10:54:39.222Z,4.60
2023-05-19T10:57:08.079Z,4.20
2023-05-19T10:59:37.207Z,4.40
2023-05-19T11:02:05.096Z,3.70
2023-05-19T11:04:32.884Z,4.40
2023-05-19T11:07:00.414Z,4.20
2023-05-19T11:09:39.713Z,4.60
2023-05-19T11:12:08.051Z,4.90
2023-05-19T11:14:36.244Z,5.10
2023-05-19T11:17:05.660Z,3.70
2023-05-19T11:19:33.428Z,4.10
2023-05-19T11:22:01.422Z,3.50
2023-05-19T11:24:28.935Z,4.20
2023-05-19T11:26:56.698Z,3.50
2023-05-19T11:29:24.303Z,4.10
2023-05-19T11:31:51.958Z,2.50
2023-05-19T11:34:19.677Z,3.00
2023-05-19T11:36:48.298Z,4.40
2023-05-19T11:39:15.868Z,4.60
2023-05-19T11:41:43.388Z,5.20
2023-05-19T11:44:11.858Z,3.90
2023-05-19T11:46:39.564Z,3.90
2023-05-19T11:49:07.154Z,4.40
2023-05-19T11:51:34.761Z,4.60
2023-05-19T11:54:03.192Z,5.10
2023-05-19T11:56:30.914Z,3.50
2023-05-19T11:58:58.465Z,4.00
2023-05-19T12:01:27.113Z,4.70
2023-05-19T12:03:54.793Z,4.50
2023-05-19T12:06:22.587Z,4.50
2023-05-19T12:08:50.173Z,4.50
2023-05-19T12:11:18.155Z,4.20
2023-05-19T12:13:46.517Z,5.30
2023-05-19T12:16:14.251Z,3.90
2023-05-19T12:18:42.058Z,4.20
2023-05-19T12:21:09.926Z,4.00
2023-05-19T12:23:37.436Z,3.80
2023-05-19T12:26:04.965Z,4.60
2023-05-19T12:28:32.701Z,4.70
2023-05-19T12:31:00.922Z,4.40
2023-05-19T12:33:28.443Z,5.40
2023-05-19T12:35:56.374Z,5.10
2023-05-19T12:38:23.900Z,5.40
2023-05-19T12:40:51.542Z,6.30
2023-05-19T12:43:19.051Z,6.00
2023-05-19T12:45:46.681Z,5.80
2023-05-19T12:48:16.102Z,5.20
2023-05-19T12:50:45.004Z,7.30
2023-05-19T12:53:13.170Z,6.70
2023-05-19T12:55:42.172Z,6.00
2023-05-19T12:58:09.796Z,4.90
2023-05-19T13:00:37.444Z,5.90
2023-05-19T13:03:05.666Z,5.40
2023-05-19T13:05:37.067Z,5.90
2023-05-19T13:08:04.680Z,5.10
2023-05-19T13:10:33.113Z,6.00
2023-05-19T13:13:01.173Z,5.30
2023-05-19T13:15:31.645Z,5.80
2023-05-19T13:17:59.270Z,5.50
2023-05-19T13:20:28.496Z,5.70
2023-05-19T13:22:57.095Z,5.20
2023-05-19T13:25:24.712Z,6.20
2023-05-19T13:27:52.280Z,6.10
2023-05-19T13:30:20.954Z,4.60
2023-05-19T13:32:48.546Z,5.60
2023-05-19T13:35:16.188Z,6.30
2023-05-19T13:37:43.880Z,6.60
2023-05-19T13:40:11.642Z,6.20
2023-05-19T13:42:39.233Z,6.30
2023-05-19T13:45:06.780Z,6.20
2023-05-19T13:47:34.392Z,6.60
2023-05-19T13:50:02.364Z,6.90
2023-05-19T13:52:30.576Z,6.00
2023-05-19T13:54:58.267Z,6.10
2023-05-19T13:57:26.482Z,7.20
2023-05-19T14:00:01.648Z,6.80
2023-05-19T14:02:30.895Z,5.70
2023-05-19T14:04:58.825Z,6.90
2023-05-19T14:07:28.599Z,6.60
2023-05-19T14:09:56.393Z,6.00
2023-05-19T14:12:30.945Z,4.60
2023-05-19T14:15:04.349Z,5.90
2023-05-19T14:17:32.645Z,6.50
2023-05-19T14:20:00.289Z,5.90
2023-05-19T14:22:27.893Z,5.80
2023-05-19T14:24:55.405Z,6.00
2023-05-19T14:27:22.967Z,6.00
2023-05-19T14:29:50.662Z,5.90
2023-05-19T14:32:18.581Z,5.90
2023-05-19T14:34:46.203Z,5.50
2023-05-19T14:37:13.759Z,6.30
2023-05-19T14:39:41.301Z,5.70
2023-05-19T14:42:08.810Z,5.50
2023-05-19T14:44:37.651Z,5.10
2023-05-19T14:47:07.383Z,5.50
2023-05-19T14:49:35.077Z,4.70
2023-05-19T14:52:03.163Z,5.20
2023-05-19T14:54:30.712Z,4.70
2023-05-19T14:56:58.283Z,6.10
2023-05-19T14:59:26.010Z,6.20
2023-05-19T15:01:53.506Z,5.60
2023-05-19T15:04:21.450Z,6.30
2023-05-19T15:06:58.130Z,5.00
2023-05-19T15:09:36.665Z,6.50
2023-05-19T15:12:04.316Z,5.50
2023-05-19T15:14:31.897Z,6.20
2023-05-19T15:16:59.498Z,6.20
2023-05-19T15:19:27.364Z,6.00
2023-05-19T15:21:55.240Z,5.70
2023-05-19T15:24:22.781Z,5.60
2023-05-19T15:26:50.444Z,5.60
2023-05-19T15:29:36.847Z,3.80
2023-05-19T15:32:04.916Z,4.90
2023-05-19T15:34:32.468Z,5.30
2023-05-19T15:37:07.023Z,4.80
2023-05-19T15:39:35.078Z,5.40
2023-05-19T15:42:02.604Z,5.70
2023-05-19T15:44:30.189Z,5.40
2023-05-19T15:46:57.904Z,6.00
2023-05-19T15:49:25.482Z,5.90
2023-05-19T15:51:53.077Z,5.70
2023-05-19T15:54:20.675Z,6.30
2023-05-19T15:56:48.310Z,5.80
2023-05-19T15:59:15.889Z,4.80
2023-05-19T16:01:43.527Z,5.30
2023-05-19T16:04:11.219Z,4.70
2023-05-19T16:06:38.877Z,5.90
2023-05-19T16:09:06.783Z,4.60
2023-05-19T16:11:34.359Z,5.60
2023-05-19T16:14:01.935Z,5.70
2023-05-19T16:16:29.716Z,5.80
2023-05-19T16:18:57.341Z,5.70
2023-05-19T16:21:24.857Z,6.50
2023-05-19T16:23:52.412Z,6.40
2023-05-19T16:26:20.162Z,5.70
2023-05-19T16:28:47.723Z,5.90
2023-05-19T16:31:15.361Z,5.30
2023-05-19T16:33:42.995Z,5.70
2023-05-19T16:36:10.772Z,5.80
2023-05-19T16:38:38.317Z,6.20
2023-05-19T16:41:05.995Z,5.30
2023-05-19T16:43:33.976Z,6.10
2023-05-19T16:46:04.206Z,5.30
2023-05-19T16:48:31.811Z,6.20
2023-05-19T16:50:59.832Z,5.60
2023-05-19T16:53:27.587Z,6.80
2023-05-19T16:55:55.164Z,6.40
2023-05-19T16:58:22.770Z,5.50
2023-05-19T17:00:50.406Z,6.60
2023-05-19T17:03:18.358Z,6.60
2023-05-19T17:05:46.226Z,7.30
2023-05-19T17:08:13.878Z,6.10
2023-05-19T17:10:41.591Z,6.90
2023-05-19T17:13:09.208Z,6.30
2023-05-19T17:15:37.489Z,6.10
2023-05-19T17:18:05.780Z,6.10
2023-05-19T17:20:33.576Z,5.10
2023-05-19T17:23:01.318Z,6.20
2023-05-19T17:25:28.818Z,5.60
2023-05-19T17:27:56.436Z,8.00
2023-05-19T17:30:24.198Z,7.60
2023-05-19T17:32:52.264Z,7.70
2023-05-19T17:35:19.937Z,7.30
2023-05-19T17:37:47.597Z,7.70
2023-05-19T17:40:15.113Z,8.20
2023-05-19T17:42:42.624Z,8.00
2023-05-19T17:45:12.408Z,6.00
2023-05-19T17:47:40.034Z,6.00
2023-05-19T17:50:07.673Z,7.10
2023-05-19T17:52:35.215Z,6.10
2023-05-19T17:55:02.914Z,7.60
2023-05-19T17:57:31.074Z,6.70
2023-05-19T17:59:58.646Z,5.10
2023-05-19T18:02:26.475Z,6.50
2023-05-19T18:04:54.467Z,6.90
2023-05-19T18:07:22.199Z,7.80
2023-05-19T18:09:51.106Z,6.80
2023-05-19T18:12:18.864Z,8.30
2023-05-19T18:14:46.445Z,8.30
2023-05-19T18:17:13.931Z,7.90
2023-05-19T18:19:41.474Z,6.70
2023-05-19T18:22:13.069Z,5.30
2023-05-19T18:24:40.713Z,6.40
2023-05-19T18:27:08.226Z,6.60
2023-05-19T18:29:35.860Z,5.80
2023-05-19T18:32:03.491Z,6.00
2023-05-19T18:34:31.186Z,6.40
2023-05-19T18:36:58.823Z,6.80
2023-05-19T18:39:28.566Z,5.40
2023-05-19T18:41:56.875Z,5.00
2023-05-19T18:44:24.454Z,5.50
2023-05-19T18:46:52.049Z,6.30
2023-05-19T18:49:20.023Z,6.40
2023-05-19T18:51:48.562Z,6.50
2023-05-19T18:54:16.178Z,6.50
2023-05-19T18:56:43.743Z,5.20
2023-05-19T18:59:11.552Z,6.00
2023-05-19T19:01:39.190Z,6.80
2023-05-19T19:04:07.146Z,6.60
2023-05-19T19:06:34.793Z,7.00
2023-05-19T19:09:02.395Z,6.60
2023-05-19T19:11:30.213Z,5.90
2023-05-19T19:13:57.977Z,7.40
2023-05-19T19:16:25.473Z,6.00
2023-05-19T19:18:53.438Z,6.10
2023-05-19T19:21:24.070Z,7.10
2023-05-19T19:23:51.656Z,6.90
2023-05-19T19:26:19.182Z,6.90
2023-05-19T19:28:47.222Z,7.30
2023-05-19T19:31:14.848Z,6.50
2023-05-19T19:33:43.509Z,5.80
2023-05-19T19:36:11.413Z,6.40
2023-05-19T19:38:38.906Z,7.00
2023-05-19T19:41:06.478Z,7.00
2023-05-19T19:43:34.057Z,8.20
2023-05-19T19:46:01.725Z,7.40
2023-05-19T19:48:29.355Z,7.10
2023-05-19T19:50:56.973Z,9.00
2023-05-19T19:53:24.889Z,9.50
2023-05-19T19:55:53.332Z,8.70
2023-05-19T19:58:21.152Z,6.80
2023-05-19T20:00:48.844Z,7.80
2023-05-19T20:03:16.421Z,7.20
2023-05-19T20:05:44.851Z,7.10
2023-05-19T20:08:13.489Z,7.80
2023-05-19T20:10:41.619Z,7.70
2023-05-19T20:13:09.536Z,7.10
2023-05-19T20:15:37.509Z,8.50
2023-05-19T20:18:05.098Z,8.20
2023-05-19T20:20:33.048Z,8.00
2023-05-19T20:23:00.947Z,8.20
2023-05-19T20:25:28.647Z,5.60
2023-05-19T20:27:56.266Z,7.20
2023-05-19T20:30:24.112Z,7.40
2023-05-19T20:32:51.634Z,7.60
2023-05-19T20:35:19.186Z,6.00
2023-05-19T20:37:48.004Z,6.60
2023-05-19T20:40:15.640Z,4.30
2023-05-19T20:42:43.208Z,7.90
2023-05-19T20:45:10.721Z,5.50
2023-05-19T20:47:38.331Z,7.30
2023-05-19T20:50:06.154Z,6.40
2023-05-19T20:52:33.687Z,7.10
2023-05-19T20:55:01.278Z,7.40
2023-05-19T20:57:29.055Z,7.80
2023-05-19T20:59:56.630Z,6.40
2023-05-19T21:02:24.181Z,5.60
2023-05-19T21:04:51.763Z,7.20
2023-05-19T21:07:19.569Z,7.30
2023-05-19T21:09:50.237Z,7.00
2023-05-19T21:12:18.492Z,7.20
2023-05-19T21:14:47.493Z,10.20
2023-05-19T21:17:15.268Z,9.50
2023-05-19T21:19:42.787Z,7.90
2023-05-19T21:22:10.291Z,8.40
2023-05-19T21:24:37.848Z,9.70
2023-05-19T21:27:05.433Z,11.40
2023-05-19T21:29:32.930Z,12.10
2023-05-19T21:32:01.163Z,9.40
2023-05-19T21:34:28.699Z,10.80
2023-05-19T21:36:56.709Z,10.60
2023-05-19T21:39:24.218Z,10.70
2023-05-19T21:41:51.792Z,8.10
2023-05-19T21:44:19.444Z,7.80
2023-05-19T21:46:47.503Z,7.80
2023-05-19T21:49:15.118Z,6.30
2023-05-19T21:51:42.606Z,6.10
2023-05-19T21:54:10.182Z,9.00
2023-05-19T21:56:38.085Z,6.70
2023-05-19T21:59:05.618Z,6.90
2023-05-19T22:01:44.855Z,5.00
2023-05-19T22:04:13.627Z,6.00
2023-05-19T22:06:41.324Z,6.50
2023-05-19T22:09:09.165Z,8.30
2023-05-19T22:11:36.970Z,8.80
2023-05-19T22:14:04.538Z,7.90
2023-05-19T22:16:32.151Z,5.80
2023-05-19T22:19:00.181Z,5.80
2023-05-19T22:21:28.042Z,7.30
2023-05-19T22:23:55.758Z,6.10
2023-05-19T22:26:23.295Z,7.60
2023-05-19T22:28:50.780Z,5.00
2023-05-19T22:31:18.486Z,5.40
2023-05-19T22:33:46.220Z,6.00
2023-05-19T22:36:16.025Z,7.80
2023-05-19T22:38:43.574Z,8.00
2023-05-19T22:41:11.157Z,7.10
2023-05-19T22:43:57.368Z,5.30
2023-05-19T22:46:24.950Z,6.90
2023-05-19T22:48:52.455Z,6.20
2023-05-19T22:51:19.963Z,6.40
2023-05-19T22:53:48.749Z,5.30
2023-05-19T22:56:16.361Z,8.10
2023-05-19T22:58:44.184Z,7.10
2023-05-19T23:01:11.764Z,5.50
2023-05-19T23:03:39.318Z,8.40
2023-05-19T23:06:06.862Z,7.50
2023-05-19T23:08:34.454Z,7.10
2023-05-19T23:11:02.513Z,5.40
2023-05-19T23:13:30.024Z,8.10
2023-05-19T23:15:57.600Z,8.10
2023-05-19T23:18:25.147Z,7.80
2023-05-19T23:20:52.914Z,6.10
2023-05-19T23:23:20.544Z,6.30
2023-05-19T23:25:48.075Z,6.70
2023-05-19T23:28:15.639Z,5.80
2023-05-19T23:30:43.174Z,9.50
2023-05-19T23:33:10.697Z,5.80
2023-05-19T23:35:39.613Z,6.50
2023-05-19T23:38:07.128Z,8.00
2023-05-19T23:40:34.677Z,6.70
2023-05-19T23:43:02.231Z,7.30
2023-05-19T23:45:29.849Z,7.70
2023-05-19T23:47:57.388Z,7.40
2023-05-19T23:50:24.992Z,6.80
2023-05-19T23:52:52.550Z,8.00
2023-05-19T23:55:20.242Z,6.00
2023-05-19T23:57:47.784Z,6.00
